»·PEaware :: N895PW KPSP-L35

N895PW :: KPSP-L35

FLIGHT INFORMATION

Flight Status: Arrived
Operator: Privately registered:
United States
More flights under this callsign
Pilot: Robert C. (26285)
Aircraft: Unknown
(DA62)
More flights by this aircraft type
Origin: KPSP Palm Springs Intl
United States
Destination: L35 Big Bear City
United States
More flights between these airports :: More routes between these airports
Route:
File this flight plan on PilotEdge
Remarks:
Altitude:
(Current/Filed)
10,500ft
Speed:
(Current/Filed)
150kts
Departed: 22-Oct-19 11:57 AM
Arrived: 22-Oct-19 12:16 PM
Distance/Time
Traveled:
31nm/0:19
Distance/Time
To Go:
Arrived

Flight Plot

Page will automatically refresh every two minutes.


Map Options




Map Legend


Flown Route
Filed Route
Departure Airport
Arrival Airport
Navaid (VOR, NDB)
Fix

Horizontal Profiles

Position Reports

Time Latitude Longitude Heading Altitude Ground
Speed
22-Oct-19 11:23 33.823051 -116.497310 52 481ft 0kts
22-Oct-19 11:24 33.823051 -116.497310 52 481ft 0kts
22-Oct-19 11:25 33.823051 -116.497310 52 481ft 0kts
22-Oct-19 11:26 33.823051 -116.497310 52 481ft 0kts
22-Oct-19 11:27 33.823051 -116.497310 52 481ft 0kts
22-Oct-19 11:28 33.823051 -116.497310 52 481ft 0kts
22-Oct-19 11:29 33.823051 -116.497310 52 481ft 0kts
22-Oct-19 11:30 33.823051 -116.497310 52 481ft 0kts
22-Oct-19 11:31 33.823051 -116.497310 52 481ft 0kts
22-Oct-19 11:32 33.823051 -116.497310 52 481ft 0kts
22-Oct-19 11:33 33.823051 -116.497310 52 481ft 0kts
22-Oct-19 11:33 33.823051 -116.497310 52 481ft 0kts
22-Oct-19 11:35 33.823051 -116.497310 52 481ft 0kts
22-Oct-19 11:36 33.823051 -116.497310 52 481ft 0kts
22-Oct-19 11:36 33.823051 -116.497310 52 481ft 0kts
22-Oct-19 11:37 33.823051 -116.497310 52 481ft 0kts
22-Oct-19 11:39 33.823051 -116.497310 52 481ft 0kts
22-Oct-19 11:39 33.823051 -116.497310 52 481ft 0kts
22-Oct-19 11:40 33.823051 -116.497310 52 481ft 0kts
22-Oct-19 11:41 33.823051 -116.497310 52 481ft 0kts
22-Oct-19 11:42 33.823051 -116.497310 52 481ft 0kts
22-Oct-19 11:43 33.823051 -116.497310 52 481ft 0kts
22-Oct-19 11:44 33.823051 -116.497310 52 481ft 0kts
22-Oct-19 11:45 33.823051 -116.497310 52 481ft 0kts
22-Oct-19 11:46 33.823051 -116.497310 52 481ft 0kts
22-Oct-19 11:47 33.823051 -116.497310 52 481ft 0kts
22-Oct-19 11:48 33.823051 -116.497310 52 481ft 0kts
22-Oct-19 11:49 33.823051 -116.497310 52 481ft 0kts
22-Oct-19 11:50 33.823090 -116.497250 52 481ft 1kts
22-Oct-19 11:51 33.824586 -116.498811 235 481ft 8kts
22-Oct-19 11:52 33.824630 -116.499613 233 481ft 0kts
22-Oct-19 11:53 33.824630 -116.499613 233 481ft 0kts
22-Oct-19 11:54 33.824630 -116.499613 233 481ft 0kts
22-Oct-19 11:55 33.824416 -116.500108 303 481ft 5kts
22-Oct-19 11:56 33.833658 -116.508038 327 625ft 86kts
22-Oct-19 11:57 33.857229 -116.528305 321 1523ft 107kts
22-Oct-19 11:58 33.885519 -116.528849 10 2537ft 103kts
22-Oct-19 11:59 33.915266 -116.522973 10 3432ft 113kts
22-Oct-19 12:00 33.947064 -116.516690 10 4369ft 114kts
22-Oct-19 12:01 33.978574 -116.510471 10 5289ft 114kts
22-Oct-19 12:02 34.010007 -116.504186 10 6194ft 114kts
22-Oct-19 12:03 34.041425 -116.500363 348 7077ft 117kts
22-Oct-19 12:04 34.072814 -116.511154 346 7954ft 117kts
22-Oct-19 12:05 34.103960 -116.522703 345 8822ft 117kts
22-Oct-19 12:06 34.135162 -116.534598 344 9698ft 117kts
22-Oct-19 12:07 34.166154 -116.546638 343 10508ft 121kts
22-Oct-19 12:08 34.203855 -116.561715 341 10575ft 156kts
22-Oct-19 12:09 34.241993 -116.586742 310 10505ft 161kts
22-Oct-19 12:10 34.259741 -116.637273 286 9988ft 167kts
22-Oct-19 12:11 34.263413 -116.693721 273 9278ft 169kts
22-Oct-19 12:12 34.264050 -116.750084 275 8709ft 164kts
22-Oct-19 12:13 34.263960 -116.800942 273 7980ft 121kts
22-Oct-19 12:14 34.263849 -116.837038 276 6992ft 100kts
22-Oct-19 12:15 34.263455 -116.859116 178 6755ft 6kts
22-Oct-19 12:16 34.263231 -116.859025 90 6755ft 5kts
22-Oct-19 12:17 34.262958 -116.856575 179 6755ft 0kts
22-Oct-19 12:18 34.262958 -116.856575 179 6755ft 0kts
22-Oct-19 12:19 34.262958 -116.856575 179 6755ft 0kts
22-Oct-19 12:20 34.262958 -116.856575 179 6755ft 0kts
22-Oct-19 12:21 34.262958 -116.856575 179 6755ft 0kts
22-Oct-19 12:22 34.262958 -116.856575 179 6755ft 0kts
22-Oct-19 12:23 34.262958 -116.856575 179 6755ft 0kts
22-Oct-19 12:24 34.262958 -116.856575 179 6755ft 0kts
22-Oct-19 12:25 34.262958 -116.856575 179 6755ft 0kts
22-Oct-19 12:26 34.262834 -116.854430 89 6755ft 12kts
22-Oct-19 12:27 34.263242 -116.851215 69 6755ft 6kts
22-Oct-19 12:28 34.263404 -116.846425 356 6755ft 0kts
22-Oct-19 12:29 34.263826 -116.846696 271 6755ft 0kts

Navigation Log

Ident Type
Flight plan parsing failed, navigation log unavailable